createdAt,value
2023-03-28T00:01:00.817Z,2.10
2023-03-28T00:03:28.824Z,2.40
2023-03-28T00:05:56.428Z,2.20
2023-03-28T00:08:23.051Z,2.40
2023-03-28T00:10:49.556Z,2.40
2023-03-28T00:13:19.160Z,2.70
2023-03-28T00:15:47.875Z,2.20
2023-03-28T00:18:14.894Z,2.10
2023-03-28T00:20:44.820Z,2.70
2023-03-28T00:23:11.913Z,2.40
2023-03-28T00:27:00.954Z,2.40
2023-03-28T00:29:31.390Z,2.70
2023-03-28T00:31:59.630Z,1.80
2023-03-28T00:34:27.540Z,1.50
2023-03-28T00:36:55.399Z,1.50
2023-03-28T00:39:23.606Z,1.50
2023-03-28T00:41:52.746Z,1.70
2023-03-28T00:44:39.681Z,2.40
2023-03-28T00:47:19.085Z,2.50
2023-03-28T00:49:49.931Z,1.90
2023-03-28T00:52:18.426Z,2.30
2023-03-28T00:54:48.421Z,2.10
2023-03-28T00:57:16.729Z,1.80
2023-03-28T00:59:45.145Z,1.90
2023-03-28T01:02:15.217Z,2.00
2023-03-28T01:04:53.206Z,2.00
2023-03-28T01:07:21.116Z,2.90
2023-03-28T01:09:49.250Z,2.70
2023-03-28T01:12:17.824Z,2.20
2023-03-28T01:14:45.848Z,2.10
2023-03-28T01:17:16.173Z,2.20
2023-03-28T01:20:03.795Z,2.10
2023-03-28T01:23:01.443Z,2.00
2023-03-28T01:25:29.396Z,1.90
2023-03-28T01:28:02.559Z,2.00
2023-03-28T01:30:34.281Z,1.90
2023-03-28T01:33:20.980Z,1.80
2023-03-28T01:35:57.924Z,2.20
2023-03-28T01:38:29.068Z,2.00
2023-03-28T01:41:01.429Z,2.30
2023-03-28T01:43:29.534Z,2.30
2023-03-28T01:46:16.133Z,2.40
2023-03-28T01:48:56.583Z,2.00
2023-03-28T01:58:02.277Z,1.50
2023-03-28T02:00:32.490Z,1.30
2023-03-28T02:03:06.410Z,1.20
2023-03-28T02:05:35.061Z,1.20
2023-03-28T02:08:05.414Z,1.20
2023-03-28T02:10:33.685Z,1.30
2023-03-28T02:13:08.158Z,1.10
2023-03-28T02:15:36.180Z,1.90
2023-03-28T02:18:08.543Z,1.30
2023-03-28T02:20:37.766Z,2.40
2023-03-28T02:23:11.686Z,1.30
2023-03-28T02:25:39.603Z,1.50
2023-03-28T02:28:09.137Z,1.40
2023-03-28T02:30:37.173Z,1.30
2023-03-28T02:33:06.252Z,1.50
2023-03-28T02:35:54.891Z,1.60
2023-03-28T02:38:28.411Z,1.60
2023-03-28T02:41:26.405Z,1.40
2023-03-28T02:44:00.172Z,1.80
2023-03-28T02:46:27.953Z,1.80
2023-03-28T02:49:02.061Z,1.80
2023-03-28T02:51:37.073Z,1.60
2023-03-28T02:54:05.054Z,1.60
2023-03-28T02:56:38.804Z,1.90
2023-03-28T02:59:09.183Z,1.60
2023-03-28T03:01:37.233Z,1.70
2023-03-28T03:04:06.108Z,1.20
2023-03-28T03:06:50.949Z,1.40
2023-03-28T03:09:18.777Z,1.60
2023-03-28T03:11:46.618Z,1.70
2023-03-28T03:14:14.487Z,1.80
2023-03-28T03:16:43.813Z,1.80
2023-03-28T03:19:12.176Z,1.40
2023-03-28T03:21:40.103Z,1.60
2023-03-28T03:24:09.952Z,1.70
2023-03-28T03:26:37.771Z,2.10
2023-03-28T03:29:06.151Z,1.60
2023-03-28T03:31:34.177Z,1.50
2023-03-28T03:34:02.131Z,1.40
2023-03-28T03:36:32.919Z,1.40
2023-03-28T03:39:01.153Z,1.30
2023-03-28T03:41:29.194Z,1.40
2023-03-28T03:43:56.934Z,1.50
2023-03-28T03:46:25.013Z,1.60
2023-03-28T03:48:52.964Z,1.50
2023-03-28T03:51:20.734Z,1.50
2023-03-28T03:53:50.877Z,1.50
2023-03-28T03:56:18.754Z,1.60
2023-03-28T03:58:46.794Z,1.60
2023-03-28T04:01:14.592Z,1.30
2023-03-28T04:03:43.108Z,1.50
2023-03-28T04:06:10.986Z,1.20
2023-03-28T04:08:38.872Z,1.40
2023-03-28T04:11:08.074Z,1.40
2023-03-28T04:13:36.290Z,1.20
2023-03-28T04:16:04.235Z,1.30
2023-03-28T04:18:34.531Z,1.30
2023-03-28T04:21:02.666Z,1.40
2023-03-28T04:23:30.709Z,1.40
2023-03-28T04:25:58.771Z,1.40
2023-03-28T04:28:28.017Z,1.30
2023-03-28T04:30:59.638Z,1.50
2023-03-28T04:33:30.296Z,1.30
2023-03-28T04:36:02.995Z,1.40
2023-03-28T04:38:32.477Z,1.50
2023-03-28T04:41:01.010Z,1.90
2023-03-28T04:43:29.263Z,1.70
2023-03-28T04:45:57.791Z,1.40
2023-03-28T04:48:26.658Z,1.30
2023-03-28T04:50:54.968Z,1.50
2023-03-28T04:53:23.317Z,1.60
2023-03-28T04:55:51.366Z,1.60
2023-03-28T04:58:20.803Z,1.60
2023-03-28T05:00:50.169Z,1.50
2023-03-28T05:03:20.631Z,1.40
2023-03-28T05:05:53.183Z,1.40
2023-03-28T05:08:22.778Z,1.30
2023-03-28T05:10:51.146Z,1.30
2023-03-28T05:13:19.256Z,1.20
2023-03-28T05:15:48.080Z,1.00
2023-03-28T05:18:16.108Z,1.30
2023-03-28T05:20:43.953Z,1.40
2023-03-28T05:23:11.806Z,1.60
2023-03-28T05:25:40.104Z,2.00
2023-03-28T05:28:08.151Z,1.60
2023-03-28T05:30:35.948Z,2.30
2023-03-28T05:33:03.941Z,2.30
2023-03-28T05:35:31.999Z,2.20
2023-03-28T05:38:00.124Z,2.40
2023-03-28T05:40:28.144Z,2.40
2023-03-28T05:42:56.116Z,2.40
2023-03-28T05:45:24.284Z,2.20
2023-03-28T05:47:54.588Z,2.30
2023-03-28T05:50:23.098Z,2.20
2023-03-28T05:52:51.299Z,2.20
2023-03-28T05:55:19.504Z,2.30
2023-03-28T05:57:47.363Z,2.60
2023-03-28T06:00:15.656Z,2.60
2023-03-28T06:02:43.604Z,2.60
2023-03-28T06:05:14.239Z,2.90
2023-03-28T06:07:43.119Z,2.50
2023-03-28T06:10:22.370Z,2.50
2023-03-28T06:12:50.212Z,2.60
2023-03-28T06:15:18.080Z,2.60
2023-03-28T06:17:46.103Z,2.70
2023-03-28T06:20:14.254Z,2.90
2023-03-28T06:22:42.340Z,2.30
2023-03-28T06:25:10.644Z,2.70
2023-03-28T06:27:38.612Z,2.90
2023-03-28T06:30:08.027Z,2.80
2023-03-28T06:32:36.492Z,2.40
2023-03-28T06:35:05.211Z,3.60
2023-03-28T06:37:33.298Z,2.60
2023-03-28T06:40:01.206Z,2.40
2023-03-28T06:42:29.301Z,2.70
2023-03-28T06:44:57.253Z,2.60
2023-03-28T06:47:25.573Z,2.80
2023-03-28T06:49:53.462Z,2.40
2023-03-28T06:52:23.613Z,2.00
2023-03-28T06:54:52.067Z,2.30
2023-03-28T06:57:20.255Z,2.00
2023-03-28T06:59:48.356Z,2.50
2023-03-28T07:02:16.360Z,2.50
2023-03-28T07:04:44.827Z,2.30
2023-03-28T07:07:13.752Z,2.30
2023-03-28T07:09:41.868Z,2.50
2023-03-28T07:12:09.689Z,2.00
2023-03-28T07:14:38.614Z,2.50
2023-03-28T07:17:06.491Z,2.10
2023-03-28T07:19:34.415Z,2.20
2023-03-28T07:22:02.624Z,2.30
2023-03-28T07:24:30.900Z,1.90
2023-03-28T07:27:11.864Z,2.20
2023-03-28T07:29:43.242Z,2.20
2023-03-28T07:32:11.619Z,2.00
2023-03-28T07:34:39.462Z,1.70
2023-03-28T07:37:08.072Z,1.60
2023-03-28T07:39:40.072Z,1.60
2023-03-28T07:42:11.012Z,1.80
2023-03-28T07:44:41.018Z,1.90
2023-03-28T07:47:10.727Z,1.80
2023-03-28T07:49:39.709Z,1.90
2023-03-28T07:52:07.662Z,1.70
2023-03-28T07:54:35.862Z,1.60
2023-03-28T07:57:04.013Z,2.00
2023-03-28T07:59:31.988Z,1.60
2023-03-28T08:02:02.983Z,2.00
2023-03-28T08:04:31.207Z,2.40
2023-03-28T08:07:00.412Z,2.30
2023-03-28T08:09:28.516Z,2.10
2023-03-28T08:11:56.534Z,2.90
2023-03-28T08:14:24.446Z,2.30
2023-03-28T08:16:52.362Z,2.60
2023-03-28T08:19:20.548Z,2.40
2023-03-28T08:21:48.627Z,2.40
2023-03-28T08:24:25.394Z,2.40
2023-03-28T08:26:57.122Z,2.40
2023-03-28T08:29:24.982Z,1.90
2023-03-28T08:31:53.158Z,2.20
2023-03-28T08:34:21.174Z,2.10
2023-03-28T08:36:49.165Z,2.30
2023-03-28T08:39:17.709Z,2.50
2023-03-28T08:41:46.325Z,2.90
2023-03-28T08:44:14.393Z,3.20
2023-03-28T08:46:43.189Z,2.50
2023-03-28T08:49:12.608Z,1.70
2023-03-28T08:51:42.961Z,2.00
2023-03-28T08:54:16.761Z,1.40
2023-03-28T08:56:47.027Z,1.40
2023-03-28T08:59:17.297Z,1.60
2023-03-28T09:01:45.524Z,1.30
2023-03-28T09:04:30.741Z,1.30
2023-03-28T09:07:02.769Z,1.30
2023-03-28T09:09:32.544Z,1.20
2023-03-28T09:12:13.398Z,1.40
2023-03-28T09:14:53.460Z,1.10
2023-03-28T09:17:40.170Z,1.10
2023-03-28T09:20:22.138Z,1.00
2023-03-28T09:22:56.353Z,1.10
2023-03-28T09:25:39.188Z,1.30
2023-03-28T09:28:06.972Z,1.10
2023-03-28T09:30:38.145Z,1.00
2023-03-28T09:33:25.817Z,1.20
2023-03-28T09:35:57.796Z,0.80
2023-03-28T09:38:30.392Z,0.90
2023-03-28T09:40:59.374Z,1.00
2023-03-28T09:43:47.731Z,0.80
2023-03-28T09:46:30.412Z,2.30
2023-03-28T09:48:58.763Z,1.50
2023-03-28T09:51:26.790Z,1.90
2023-03-28T09:53:54.910Z,1.30
2023-03-28T09:56:30.780Z,1.20
2023-03-28T09:59:00.537Z,1.00
2023-03-28T10:01:32.364Z,1.10
2023-03-28T10:04:00.947Z,1.40
2023-03-28T10:06:32.454Z,0.90
2023-03-28T10:09:19.547Z,1.30
2023-03-28T10:11:54.750Z,1.20
2023-03-28T10:14:28.693Z,1.10
2023-03-28T10:16:57.668Z,1.10
2023-03-28T10:19:26.300Z,1.20
2023-03-28T10:21:54.224Z,1.30
2023-03-28T10:24:22.410Z,1.60
2023-03-28T10:26:50.703Z,1.40
2023-03-28T10:29:18.588Z,1.60
2023-03-28T10:31:48.053Z,1.70
2023-03-28T10:34:29.775Z,1.30
2023-03-28T10:36:58.055Z,1.40
2023-03-28T10:39:29.371Z,1.60
2023-03-28T10:41:58.378Z,1.50
2023-03-28T10:44:40.792Z,1.70
2023-03-28T10:47:12.895Z,1.60
2023-03-28T10:49:43.569Z,1.50
2023-03-28T10:52:16.840Z,1.60
2023-03-28T10:54:50.609Z,1.70
2023-03-28T10:57:27.288Z,2.10
2023-03-28T11:00:03.831Z,1.70
2023-03-28T11:02:57.777Z,1.80
2023-03-28T11:05:52.198Z,1.80
2023-03-28T11:08:41.567Z,1.40
2023-03-28T11:11:15.533Z,1.50
2023-03-28T11:13:43.363Z,1.50
2023-03-28T11:16:11.263Z,1.60
2023-03-28T11:19:02.358Z,1.90
2023-03-28T11:21:35.636Z,1.30
2023-03-28T11:24:23.712Z,1.40
2023-03-28T11:27:15.976Z,1.60
2023-03-28T11:29:47.799Z,1.20
2023-03-28T11:32:21.083Z,1.60
2023-03-28T11:34:49.523Z,1.60
2023-03-28T11:37:21.228Z,1.90
2023-03-28T11:39:59.170Z,2.10
2023-03-28T11:42:29.357Z,2.00
2023-03-28T11:45:00.153Z,1.70
2023-03-28T11:47:48.379Z,1.70
2023-03-28T11:50:24.943Z,1.40
2023-03-28T11:52:56.901Z,1.20
2023-03-28T11:55:31.649Z,1.40
2023-03-28T11:58:05.441Z,1.40
2023-03-28T12:00:41.762Z,2.20
2023-03-28T12:03:34.570Z,1.50
2023-03-28T12:06:06.056Z,1.00
2023-03-28T12:08:55.533Z,1.30
2023-03-28T12:11:34.395Z,1.20
2023-03-28T12:14:22.989Z,1.10
2023-03-28T12:16:52.565Z,1.30
2023-03-28T12:19:31.354Z,1.10
2023-03-28T12:22:09.342Z,1.10
2023-03-28T12:24:37.255Z,0.90
2023-03-28T12:27:05.080Z,0.90
2023-03-28T12:29:53.368Z,1.10
2023-03-28T12:32:40.910Z,1.10
2023-03-28T12:35:08.740Z,1.00
2023-03-28T12:37:56.738Z,1.30
2023-03-28T12:40:25.461Z,1.10
2023-03-28T12:42:54.724Z,1.50
2023-03-28T12:45:32.968Z,1.10
2023-03-28T12:48:07.505Z,1.10
2023-03-28T12:50:41.423Z,1.10
2023-03-28T12:53:11.957Z,1.80
2023-03-28T12:55:42.688Z,2.00
2023-03-28T12:58:20.500Z,1.70
2023-03-28T13:01:03.672Z,1.20
2023-03-28T13:03:35.570Z,1.10
2023-03-28T13:06:09.673Z,1.70
2023-03-28T13:08:43.921Z,1.00
2023-03-28T13:11:29.933Z,0.90
2023-03-28T13:14:17.085Z,1.10
2023-03-28T13:16:53.166Z,1.00
2023-03-28T13:19:37.346Z,1.30
2023-03-28T13:22:07.063Z,1.20
2023-03-28T13:24:38.869Z,1.50
2023-03-28T13:27:06.677Z,1.60
2023-03-28T13:29:45.523Z,1.00
2023-03-28T13:32:17.808Z,1.40
2023-03-28T13:34:50.002Z,1.60
2023-03-28T13:37:22.632Z,1.10
2023-03-28T13:39:59.042Z,1.30
2023-03-28T13:42:28.074Z,1.10
2023-03-28T13:44:57.493Z,1.00
2023-03-28T13:47:32.792Z,0.80
2023-03-28T13:50:08.757Z,0.80
2023-03-28T13:52:38.143Z,0.90
2023-03-28T13:55:15.500Z,1.00
2023-03-28T13:57:43.808Z,1.20
2023-03-28T14:00:14.068Z,1.40
2023-03-28T14:02:43.677Z,1.10
2023-03-28T14:05:13.609Z,1.60
2023-03-28T14:07:41.831Z,1.70
2023-03-28T14:10:39.011Z,1.70
2023-03-28T14:13:08.466Z,1.40
2023-03-28T14:15:37.574Z,1.70
2023-03-28T14:18:25.285Z,1.40
2023-03-28T14:20:54.530Z,1.20
2023-03-28T14:23:27.189Z,1.20
2023-03-28T14:25:55.527Z,1.00
2023-03-28T14:28:27.822Z,1.50
2023-03-28T14:30:56.357Z,1.80
2023-03-28T14:33:24.732Z,1.30
2023-03-28T14:36:00.179Z,0.90
2023-03-28T14:38:30.109Z,1.20
2023-03-28T14:41:07.513Z,1.30
2023-03-28T14:43:35.879Z,1.10
2023-03-28T14:46:06.556Z,1.10
2023-03-28T14:48:35.613Z,1.50
2023-03-28T14:51:06.119Z,1.30
2023-03-28T14:53:40.358Z,0.90
2023-03-28T14:56:11.294Z,1.10
2023-03-28T14:58:40.987Z,1.00
2023-03-28T15:01:10.884Z,1.10
2023-03-28T15:03:40.534Z,1.20
2023-03-28T15:06:13.990Z,1.00
2023-03-28T15:08:43.756Z,1.30
2023-03-28T15:11:11.927Z,1.40
2023-03-28T15:13:40.877Z,1.20
2023-03-28T15:16:09.300Z,1.30
2023-03-28T15:18:44.568Z,1.10
2023-03-28T15:21:13.711Z,1.10
2023-03-28T15:24:02.896Z,1.00
2023-03-28T15:26:34.829Z,1.40
2023-03-28T15:29:03.183Z,1.40
2023-03-28T15:31:31.740Z,1.40
2023-03-28T15:34:00.252Z,1.20
2023-03-28T15:36:32.940Z,1.00
2023-03-28T15:39:23.799Z,1.30
2023-03-28T15:41:59.203Z,1.00
2023-03-28T15:44:31.841Z,1.10
2023-03-28T15:47:26.420Z,1.30
2023-03-28T15:50:01.846Z,1.50
2023-03-28T15:52:31.277Z,1.20
2023-03-28T15:55:01.063Z,1.10
2023-03-28T15:57:30.103Z,1.10
2023-03-28T15:59:58.953Z,1.00
2023-03-28T16:02:27.060Z,1.20
2023-03-28T16:05:02.718Z,1.60
2023-03-28T16:07:46.968Z,1.30
2023-03-28T16:10:19.249Z,1.50
2023-03-28T16:12:47.535Z,1.40
2023-03-28T16:15:15.921Z,1.10
2023-03-28T16:17:45.377Z,1.20
2023-03-28T16:20:16.432Z,1.30
2023-03-28T16:22:47.753Z,1.00
2023-03-28T16:25:17.559Z,1.00
2023-03-28T16:27:45.794Z,1.00
2023-03-28T16:30:27.264Z,1.10
2023-03-28T16:32:56.270Z,2.20
2023-03-28T16:35:27.233Z,1.30
2023-03-28T16:37:56.126Z,1.30
2023-03-28T16:40:24.076Z,1.30
2023-03-28T16:42:53.020Z,2.10
2023-03-28T16:45:21.222Z,1.40
2023-03-28T16:47:49.728Z,2.00
2023-03-28T16:50:17.807Z,1.50
2023-03-28T16:52:45.828Z,1.20
2023-03-28T16:55:15.924Z,1.90
2023-03-28T16:57:44.915Z,1.70
2023-03-28T17:00:18.530Z,1.70
2023-03-28T17:02:47.906Z,2.10
2023-03-28T17:05:18.728Z,2.00
2023-03-28T17:07:47.221Z,2.70
2023-03-28T17:10:15.437Z,2.30
2023-03-28T17:12:43.570Z,1.90
2023-03-28T17:15:12.333Z,2.10
2023-03-28T17:17:42.140Z,2.00
2023-03-28T17:20:11.796Z,1.80
2023-03-28T17:22:42.826Z,2.10
2023-03-28T17:25:11.500Z,2.10
2023-03-28T17:27:39.614Z,2.10
2023-03-28T17:30:08.609Z,2.00
2023-03-28T17:32:37.123Z,2.10
2023-03-28T17:35:05.949Z,2.20
2023-03-28T17:37:33.979Z,2.40
2023-03-28T17:40:02.129Z,2.80
2023-03-28T17:42:30.081Z,2.50
2023-03-28T17:44:58.944Z,2.20
2023-03-28T17:47:28.514Z,2.90
2023-03-28T17:50:00.422Z,2.60
2023-03-28T17:52:30.358Z,2.80
2023-03-28T17:54:58.912Z,2.60
2023-03-28T17:57:27.724Z,3.00
2023-03-28T17:59:55.758Z,3.50
2023-03-28T18:02:24.099Z,3.20
2023-03-28T18:04:53.867Z,3.40
2023-03-28T18:07:21.686Z,3.60
2023-03-28T18:09:50.020Z,3.80
2023-03-28T18:12:19.104Z,4.30
2023-03-28T18:14:48.659Z,3.60
2023-03-28T18:17:16.664Z,4.40
2023-03-28T18:19:44.584Z,4.20
2023-03-28T18:22:13.209Z,3.40
2023-03-28T18:24:41.546Z,4.50
2023-03-28T18:27:09.577Z,5.90
2023-03-28T18:29:37.657Z,5.20
2023-03-28T18:32:05.847Z,5.80
2023-03-28T18:34:33.893Z,6.40
2023-03-28T18:37:01.897Z,5.30
2023-03-28T18:39:30.216Z,6.40
2023-03-28T18:41:58.282Z,5.70
2023-03-28T18:44:26.667Z,5.20
2023-03-28T18:47:02.017Z,4.70
2023-03-28T18:49:31.047Z,4.80
2023-03-28T18:52:05.246Z,5.00
2023-03-28T18:54:35.592Z,4.30
2023-03-28T18:57:04.821Z,4.50
2023-03-28T18:59:32.816Z,5.00
2023-03-28T19:02:01.105Z,5.60
2023-03-28T19:04:29.351Z,5.10
2023-03-28T19:06:57.616Z,4.60
2023-03-28T19:09:26.130Z,4.50
2023-03-28T19:11:55.485Z,4.30
2023-03-28T19:14:23.573Z,4.40
2023-03-28T19:16:52.097Z,4.30
2023-03-28T19:19:20.013Z,4.60
2023-03-28T19:21:48.063Z,5.00
2023-03-28T19:24:16.498Z,5.60
2023-03-28T19:26:44.496Z,4.80
2023-03-28T19:29:13.204Z,4.90
2023-03-28T19:31:41.324Z,5.20
2023-03-28T19:34:15.006Z,7.70
2023-03-28T19:36:43.005Z,12.50
2023-03-28T19:39:11.378Z,16.40
2023-03-28T19:41:39.440Z,17.70
2023-03-28T19:44:07.507Z,19.20
2023-03-28T19:46:38.044Z,18.20
2023-03-28T19:49:07.387Z,22.90
2023-03-28T19:51:35.539Z,20.70
2023-03-28T19:54:03.969Z,16.80
2023-03-28T19:56:32.309Z,23.10
2023-03-28T19:59:01.129Z,23.10
2023-03-28T20:01:30.118Z,22.20
2023-03-28T20:03:58.316Z,19.00
2023-03-28T20:06:26.612Z,14.30
2023-03-28T20:08:54.819Z,10.70
2023-03-28T20:11:23.113Z,10.20
2023-03-28T20:13:51.762Z,9.70
2023-03-28T20:16:19.759Z,9.80
2023-03-28T20:18:48.358Z,9.90
2023-03-28T20:21:16.658Z,9.60
2023-03-28T20:23:44.859Z,10.60
2023-03-28T20:26:18.767Z,11.30
2023-03-28T20:28:50.270Z,10.30
2023-03-28T20:31:19.427Z,11.90
2023-03-28T20:33:47.476Z,11.90
2023-03-28T20:36:15.784Z,11.70
2023-03-28T20:38:43.862Z,13.80
2023-03-28T20:41:12.392Z,12.70
2023-03-28T20:43:52.103Z,11.80
2023-03-28T20:46:20.092Z,14.40
2023-03-28T20:48:52.680Z,13.80
2023-03-28T20:51:23.049Z,11.90
2023-03-28T20:53:54.814Z,12.80
2023-03-28T20:56:24.027Z,11.50
2023-03-28T20:58:53.374Z,10.30
2023-03-28T21:01:25.549Z,10.50
2023-03-28T21:03:55.629Z,10.70
2023-03-28T21:06:25.258Z,10.80
2023-03-28T21:08:55.328Z,10.70
2023-03-28T21:11:26.019Z,10.00
2023-03-28T21:13:54.929Z,10.60
2023-03-28T21:16:35.131Z,9.40
2023-03-28T21:19:04.338Z,10.90
2023-03-28T21:21:34.597Z,10.70
2023-03-28T21:24:04.230Z,10.40
2023-03-28T21:26:32.265Z,9.80
2023-03-28T21:29:00.197Z,9.90
2023-03-28T21:31:28.808Z,11.30
2023-03-28T21:33:58.714Z,11.20
2023-03-28T21:36:27.354Z,12.40
2023-03-28T21:38:56.148Z,16.70
2023-03-28T21:41:29.808Z,14.90
2023-03-28T21:43:59.957Z,15.20
2023-03-28T21:46:28.574Z,15.30
2023-03-28T21:48:56.887Z,14.90
2023-03-28T21:51:25.989Z,17.70
2023-03-28T21:53:53.989Z,17.70
2023-03-28T21:56:23.132Z,13.30
2023-03-28T21:58:51.170Z,12.30
2023-03-28T22:01:19.386Z,11.40
2023-03-28T22:03:47.762Z,10.70
2023-03-28T22:06:17.451Z,9.80
2023-03-28T22:08:46.571Z,9.40
2023-03-28T22:11:16.129Z,9.80
2023-03-28T22:13:45.121Z,9.70
2023-03-28T22:16:14.360Z,11.50
2023-03-28T22:18:50.301Z,10.50
2023-03-28T22:21:18.627Z,11.00
2023-03-28T22:23:47.871Z,11.00
2023-03-28T22:26:16.533Z,11.30
2023-03-28T22:28:44.638Z,11.70
2023-03-28T22:31:12.722Z,11.90
2023-03-28T22:33:40.749Z,11.80
2023-03-28T22:36:11.496Z,13.50
2023-03-28T22:38:39.471Z,15.10
2023-03-28T22:41:07.820Z,14.60
2023-03-28T22:50:41.165Z,16.00
2023-03-28T22:53:09.451Z,17.70
2023-03-28T22:55:36.284Z,19.40
2023-03-28T22:58:02.926Z,19.70
2023-03-28T23:00:29.590Z,18.60
2023-03-28T23:02:56.412Z,21.30
2023-03-28T23:05:23.207Z,21.40
2023-03-28T23:07:56.176Z,21.00
2023-03-28T23:10:23.977Z,24.10
2023-03-28T23:12:52.184Z,25.80
2023-03-28T23:15:20.733Z,28.10
2023-03-28T23:17:48.320Z,28.70
2023-03-28T23:20:15.258Z,29.00
2023-03-28T23:22:43.136Z,27.40
2023-03-28T23:25:12.446Z,30.50
2023-03-28T23:27:39.233Z,29.10
2023-03-28T23:30:06.231Z,26.70
2023-03-28T23:32:32.751Z,26.40
2023-03-28T23:34:59.423Z,23.90
2023-03-28T23:37:26.875Z,23.30
2023-03-28T23:39:54.199Z,22.10
2023-03-28T23:42:21.276Z,22.70
2023-03-28T23:44:47.897Z,19.80
2023-03-28T23:47:15.143Z,22.00
2023-03-28T23:49:41.994Z,23.10
2023-03-28T23:56:25.118Z,22.30
2023-03-28T23:58:52.968Z,19.80
